Time;durP1;ratioP1;P1;durP2;ratioP2;P2;SDS_P1;SDS_P2;PMS_P1;PMS_P2;Temp;Humidity;BMP_temperature;BMP_pressure;BME280_temperature;BME280_humidity;BME280_pressure;Samples;Min_cycle;Max_cycle;Signal;HPM_P1;HPM_P2
2023/01/27 00:01:50;;;;;;;18.90;10.03;;;;;;;;;;5007427;28;20446;-53
2023/01/27 00:04:16;;;;;;;14.90;11.67;;;;;;;;;;5014939;28;20448;-54
2023/01/27 00:06:42;;;;;;;19.30;11.53;;;;;;;;;;4978403;28;20447;-54
2023/01/27 00:09:08;;;;;;;19.27;10.70;;;;;;;;;;5021036;28;21011;-55
2023/01/27 00:14:20;;;;;;;16.23;8.60;;;;;;;;;;5004309;28;20498;-53
2023/01/27 00:16:46;;;;;;;12.83;8.27;;;;;;;;;;5014940;28;20431;-55
2023/01/27 00:19:12;;;;;;;20.40;9.77;;;;;;;;;;5023214;28;20490;-53
2023/01/27 00:24:35;;;;;;;17.03;9.10;;;;;;;;;;5023209;28;20478;-54
2023/01/27 00:27:07;;;;;;;20.67;10.73;;;;;;;;;;5017263;28;20434;-54
2023/01/27 00:29:33;;;;;;;19.60;9.97;;;;;;;;;;5019668;28;20898;-54
2023/01/27 00:34:44;;;;;;;14.17;8.67;;;;;;;;;;5010008;28;20490;-54
2023/01/27 00:37:20;;;;;;;14.80;8.33;;;;;;;;;;5005779;28;20450;-55
2023/01/27 00:39:46;;;;;;;17.07;9.40;;;;;;;;;;5019887;28;20511;-52
2023/01/27 00:42:12;;;;;;;19.40;8.70;;;;;;;;;;5020046;28;20851;-51
2023/01/27 00:45:47;;;;;;;18.33;11.17;;;;;;;;;;5020362;28;20521;-53
2023/01/27 00:47:24;;;;;;;18.87;11.57;;;;;;;;;;4992596;28;20466;-55
2023/01/27 00:49:50;;;;;;;22.83;9.07;;;;;;;;;;5018162;28;20969;-55
2023/01/27 00:52:16;;;;;;;20.23;9.33;;;;;;;;;;4968451;28;20443;-53
2023/01/27 00:54:42;;;;;;;12.10;8.27;;;;;;;;;;5011994;28;21054;-55
2023/01/27 00:57:08;;;;;;;19.57;10.33;;;;;;;;;;5010706;28;20439;-54
2023/01/27 00:59:34;;;;;;;17.30;10.50;;;;;;;;;;5015921;28;20454;-54
2023/01/27 01:02:00;;;;;;;20.23;12.23;;;;;;;;;;5006797;28;20436;-54
2023/01/27 01:04:26;;;;;;;19.67;9.60;;;;;;;;;;5014171;28;20443;-53
2023/01/27 01:06:52;;;;;;;17.83;10.70;;;;;;;;;;4990598;28;20458;-52
2023/01/27 01:09:17;;;;;;;17.63;11.43;;;;;;;;;;5013824;28;20454;-56
2023/01/27 01:11:43;;;;;;;18.03;9.90;;;;;;;;;;4989315;28;20475;-54
2023/01/27 01:14:09;;;;;;;14.20;9.67;;;;;;;;;;5012297;28;20557;-54
2023/01/27 01:16:35;;;;;;;19.87;10.00;;;;;;;;;;4990964;28;20447;-54
2023/01/27 01:19:01;;;;;;;17.90;9.97;;;;;;;;;;5012752;28;20427;-54
2023/01/27 01:21:29;;;;;;;16.00;10.50;;;;;;;;;;4966911;28;20678;-55
2023/01/27 01:23:55;;;;;;;16.10;10.13;;;;;;;;;;4995356;28;20458;-53
2023/01/27 01:26:21;;;;;;;12.20;8.20;;;;;;;;;;5008120;28;23185;-54
2023/01/27 01:28:47;;;;;;;17.13;11.20;;;;;;;;;;5011883;28;21007;-55
2023/01/27 01:31:14;;;;;;;15.67;11.47;;;;;;;;;;5005535;28;20538;-54
2023/01/27 01:33:40;;;;;;;16.57;10.30;;;;;;;;;;5003213;28;20562;-54
2023/01/27 01:36:07;;;;;;;15.90;8.87;;;;;;;;;;5002321;28;21092;-54
2023/01/27 01:38:33;;;;;;;15.07;9.27;;;;;;;;;;4971189;28;20444;-52
2023/01/27 01:40:59;;;;;;;18.70;10.30;;;;;;;;;;4997472;28;20434;-53
2023/01/27 01:43:26;;;;;;;18.90;10.27;;;;;;;;;;5007084;28;20439;-56
2023/01/27 01:45:57;;;;;;;17.97;10.30;;;;;;;;;;4994939;28;20435;-53
2023/01/27 01:48:41;;;;;;;16.13;10.00;;;;;;;;;;5010867;28;20458;-54
2023/01/27 01:51:08;;;;;;;14.13;11.83;;;;;;;;;;5005906;28;20466;-54
2023/01/27 01:53:40;;;;;;;16.20;8.60;;;;;;;;;;4994274;28;20530;-53
2023/01/27 01:56:09;;;;;;;18.30;10.13;;;;;;;;;;4991799;28;21363;-52
2023/01/27 01:58:35;;;;;;;14.63;9.03;;;;;;;;;;5005088;28;20435;-53
2023/01/27 02:01:02;;;;;;;18.03;10.50;;;;;;;;;;4997968;28;20557;-55
2023/01/27 02:03:28;;;;;;;14.30;7.87;;;;;;;;;;5005436;28;20501;-53
2023/01/27 02:05:54;;;;;;;18.57;9.23;;;;;;;;;;5008987;28;20438;-55
2023/01/27 02:08:40;;;;;;;23.53;9.20;;;;;;;;;;5008203;28;20529;-53
2023/01/27 02:11:06;;;;;;;16.97;9.77;;;;;;;;;;4996319;28;20469;-54
2023/01/27 02:13:32;;;;;;;14.80;8.27;;;;;;;;;;5002894;28;20509;-55
2023/01/27 02:15:58;;;;;;;15.13;6.20;;;;;;;;;;4996959;28;20447;-53
2023/01/27 02:18:24;;;;;;;12.50;6.60;;;;;;;;;;5009072;28;20451;-55
2023/01/27 02:20:50;;;;;;;15.07;7.33;;;;;;;;;;5009027;28;20444;-53
2023/01/27 02:23:26;;;;;;;15.57;8.80;;;;;;;;;;5011896;28;20431;-56
2023/01/27 02:25:52;;;;;;;14.10;7.37;;;;;;;;;;4996432;28;20450;-52
2023/01/27 02:28:19;;;;;;;15.07;7.60;;;;;;;;;;5009655;28;20439;-54
2023/01/27 02:30:45;;;;;;;13.33;7.50;;;;;;;;;;4961592;28;20478;-56
2023/01/27 02:33:11;;;;;;;13.80;7.60;;;;;;;;;;5012942;28;21026;-55
2023/01/27 02:35:39;;;;;;;9.80;7.33;;;;;;;;;;5011565;28;20449;-55
2023/01/27 02:38:05;;;;;;;13.47;7.97;;;;;;;;;;5013535;28;20427;-55
2023/01/27 02:40:31;;;;;;;11.73;7.10;;;;;;;;;;4985017;28;20541;-53
2023/01/27 02:42:57;;;;;;;15.70;7.10;;;;;;;;;;5014863;28;20478;-54
2023/01/27 02:45:23;;;;;;;14.53;7.93;;;;;;;;;;5007256;28;20460;-53
2023/01/27 02:47:49;;;;;;;13.93;7.43;;;;;;;;;;5011030;28;20540;-53
2023/01/27 02:50:15;;;;;;;13.13;8.43;;;;;;;;;;5004608;28;20960;-54
2023/01/27 02:52:41;;;;;;;9.47;6.77;;;;;;;;;;5011757;28;21261;-54
2023/01/27 02:55:07;;;;;;;12.90;7.17;;;;;;;;;;4988549;28;20462;-55
2023/01/27 02:57:33;;;;;;;14.13;9.00;;;;;;;;;;5000862;28;20442;-55
2023/01/27 03:00:01;;;;;;;14.87;7.27;;;;;;;;;;4985371;28;20971;-54
2023/01/27 03:02:29;;;;;;;11.33;7.73;;;;;;;;;;4991015;28;20447;-55
2023/01/27 03:04:58;;;;;;;11.90;6.57;;;;;;;;;;5006395;28;20435;-59
2023/01/27 03:07:24;;;;;;;10.10;7.57;;;;;;;;;;5009700;28;20477;-53
2023/01/27 03:09:50;;;;;;;9.40;6.90;;;;;;;;;;4993123;28;22130;-55
2023/01/27 03:12:18;;;;;;;12.10;7.00;;;;;;;;;;5005816;28;20434;-53
2023/01/27 03:20:14;;;;;;;13.03;7.67;;;;;;;;;;5000722;28;21213;-54
2023/01/27 03:22:40;;;;;;;9.40;7.00;;;;;;;;;;5010997;28;20431;-53
2023/01/27 03:25:06;;;;;;;9.40;6.67;;;;;;;;;;5011965;28;20493;-53
2023/01/27 03:27:32;;;;;;;8.97;6.07;;;;;;;;;;5021659;28;20439;-53
2023/01/27 03:30:02;;;;;;;12.97;8.23;;;;;;;;;;4983110;28;20437;-54
2023/01/27 03:32:29;;;;;;;11.07;7.07;;;;;;;;;;4994199;28;20543;-53
2023/01/27 03:34:56;;;;;;;14.50;7.47;;;;;;;;;;5017377;28;20482;-53
2023/01/27 03:48:22;;;;;;;15.07;7.37;;;;;;;;;;5018102;28;20470;-54
2023/01/27 03:50:52;;;;;;;15.40;7.80;;;;;;;;;;4992101;28;20451;-53
2023/01/27 03:53:20;;;;;;;11.13;7.33;;;;;;;;;;5012198;28;20467;-52
2023/01/27 03:55:46;;;;;;;15.57;8.50;;;;;;;;;;5011126;28;20508;-53
2023/01/27 03:58:18;;;;;;;13.90;8.03;;;;;;;;;;5016280;28;20427;-53
2023/01/27 04:00:49;;;;;;;15.47;8.77;;;;;;;;;;4981646;28;21258;-55
2023/01/27 04:08:52;;;;;;;12.63;8.03;;;;;;;;;;5014365;28;20451;-52
2023/01/27 04:14:06;;;;;;;12.20;8.73;;;;;;;;;;5021982;28;21005;-54
2023/01/27 04:16:33;;;;;;;23.00;11.30;;;;;;;;;;4964697;28;20906;-55
2023/01/27 04:18:59;;;;;;;16.23;9.50;;;;;;;;;;5014422;28;20447;-54
2023/01/27 04:21:25;;;;;;;17.40;11.20;;;;;;;;;;4981427;28;20431;-55
2023/01/27 04:23:51;;;;;;;15.60;9.30;;;;;;;;;;5017191;28;20482;-53
2023/01/27 04:26:18;;;;;;;15.10;8.73;;;;;;;;;;5010899;28;20419;-53
2023/01/27 04:28:43;;;;;;;28.00;11.13;;;;;;;;;;5012773;28;20459;-53
2023/01/27 04:31:09;;;;;;;19.70;12.53;;;;;;;;;;4969502;28;21000;-54
2023/01/27 04:33:35;;;;;;;20.63;12.20;;;;;;;;;;4988145;28;20850;-54
2023/01/27 04:36:01;;;;;;;16.07;10.50;;;;;;;;;;5006935;28;20487;-54
2023/01/27 04:38:27;;;;;;;18.23;12.40;;;;;;;;;;5014318;28;20463;-53
2023/01/27 04:40:54;;;;;;;20.70;12.03;;;;;;;;;;5010016;28;20509;-52
2023/01/27 04:43:20;;;;;;;17.53;11.70;;;;;;;;;;5000379;28;22665;-53
2023/01/27 04:45:46;;;;;;;21.70;12.60;;;;;;;;;;4995428;28;20447;-55
2023/01/27 04:48:12;;;;;;;16.57;12.27;;;;;;;;;;5003837;28;20446;-54
2023/01/27 04:50:38;;;;;;;18.67;9.57;;;;;;;;;;4998220;28;20461;-54
2023/01/27 04:53:04;;;;;;;21.27;11.57;;;;;;;;;;5025005;28;21132;-55
2023/01/27 04:55:30;;;;;;;18.03;10.77;;;;;;;;;;4994431;28;20206;-54
2023/01/27 04:57:56;;;;;;;24.07;13.37;;;;;;;;;;5021792;28;20422;-54
2023/01/27 05:00:22;;;;;;;22.53;12.00;;;;;;;;;;5003222;28;20450;-55
2023/01/27 05:02:48;;;;;;;18.00;12.37;;;;;;;;;;5010689;28;20435;-55
2023/01/27 05:05:14;;;;;;;16.97;10.57;;;;;;;;;;4973464;28;20455;-53
2023/01/27 05:07:39;;;;;;;19.60;11.20;;;;;;;;;;5017112;28;20435;-54
2023/01/27 05:10:06;;;;;;;16.17;12.27;;;;;;;;;;5011605;28;20490;-54
2023/01/27 05:12:32;;;;;;;22.47;12.37;;;;;;;;;;5013382;28;20478;-54
2023/01/27 05:14:58;;;;;;;21.23;12.50;;;;;;;;;;4986163;28;20477;-53
2023/01/27 05:17:26;;;;;;;19.50;11.13;;;;;;;;;;5011735;28;20423;-54
2023/01/27 05:19:52;;;;;;;25.07;14.40;;;;;;;;;;4990537;28;20479;-53
2023/01/27 05:22:18;;;;;;;20.13;13.60;;;;;;;;;;5013434;28;20479;-53
2023/01/27 05:24:44;;;;;;;19.07;10.80;;;;;;;;;;4990780;28;20753;-54
2023/01/27 05:27:10;;;;;;;19.00;11.70;;;;;;;;;;5015985;28;21197;-54
2023/01/27 05:29:36;;;;;;;24.53;12.40;;;;;;;;;;5013185;28;20471;-55
2023/01/27 05:32:02;;;;;;;16.97;11.80;;;;;;;;;;5002285;28;20443;-53
2023/01/27 05:34:28;;;;;;;22.50;14.47;;;;;;;;;;4970314;28;20517;-57
2023/01/27 05:36:54;;;;;;;17.50;11.77;;;;;;;;;;5013245;28;20853;-53
2023/01/27 05:39:20;;;;;;;17.50;11.87;;;;;;;;;;5012529;28;20432;-54
2023/01/27 05:41:46;;;;;;;23.60;12.80;;;;;;;;;;5006421;28;20546;-53
2023/01/27 05:44:12;;;;;;;17.30;12.73;;;;;;;;;;4989333;28;20447;-54
2023/01/27 05:46:38;;;;;;;21.80;11.70;;;;;;;;;;5013146;28;20928;-54
2023/01/27 05:49:04;;;;;;;20.80;11.30;;;;;;;;;;4984232;28;21754;-53
2023/01/27 05:51:31;;;;;;;18.30;12.00;;;;;;;;;;5011123;28;22631;-54
2023/01/27 05:53:57;;;;;;;18.50;13.07;;;;;;;;;;5000706;28;20482;-54
2023/01/27 05:56:25;;;;;;;22.43;12.50;;;;;;;;;;5001701;28;20439;-54
2023/01/27 05:58:52;;;;;;;18.90;10.43;;;;;;;;;;4998132;28;20423;-54
2023/01/27 06:01:19;;;;;;;26.30;14.30;;;;;;;;;;5010976;28;20912;-53
2023/01/27 06:03:49;;;;;;;20.17;11.47;;;;;;;;;;4977286;28;21006;-55
2023/01/27 06:06:17;;;;;;;21.63;14.30;;;;;;;;;;4996929;28;20979;-54
2023/01/27 06:08:44;;;;;;;17.90;11.67;;;;;;;;;;4997659;28;20530;-58
2023/01/27 06:11:10;;;;;;;21.53;13.63;;;;;;;;;;5006872;28;20530;-54
2023/01/27 06:13:37;;;;;;;21.07;11.73;;;;;;;;;;5006469;28;20459;-54
2023/01/27 06:16:03;;;;;;;21.70;14.60;;;;;;;;;;4981434;28;20447;-52
2023/01/27 06:18:29;;;;;;;32.03;12.27;;;;;;;;;;5005292;28;20859;-54
2023/01/27 06:20:59;;;;;;;16.23;11.50;;;;;;;;;;4981409;28;20519;-54
2023/01/27 06:23:26;;;;;;;18.83;11.33;;;;;;;;;;5009109;28;20964;-53
2023/01/27 06:25:52;;;;;;;21.80;13.43;;;;;;;;;;4970554;28;21201;-53
2023/01/27 06:28:18;;;;;;;19.60;11.80;;;;;;;;;;5012457;28;20446;-53
2023/01/27 06:30:44;;;;;;;18.23;11.07;;;;;;;;;;5001199;28;20443;-53
2023/01/27 06:33:10;;;;;;;18.67;12.33;;;;;;;;;;5008509;28;20486;-53
2023/01/27 06:35:45;;;;;;;19.93;12.60;;;;;;;;;;4990846;28;20825;-55
2023/01/27 06:38:14;;;;;;;19.40;10.33;;;;;;;;;;4979832;28;20630;-54
2023/01/27 06:40:40;;;;;;;16.10;10.43;;;;;;;;;;4999800;28;20477;-55
2023/01/27 06:43:10;;;;;;;21.60;10.93;;;;;;;;;;5001906;28;20538;-53
2023/01/27 06:45:35;;;;;;;20.90;11.60;;;;;;;;;;4997572;28;20455;-56
2023/01/27 06:48:02;;;;;;;17.40;11.33;;;;;;;;;;5001687;28;20459;-54
2023/01/27 06:50:30;;;;;;;15.93;11.27;;;;;;;;;;5002758;28;20457;-55
2023/01/27 06:53:00;;;;;;;19.23;11.03;;;;;;;;;;4997530;28;21303;-53
2023/01/27 06:55:27;;;;;;;21.13;12.47;;;;;;;;;;5006082;28;20451;-54
2023/01/27 06:57:53;;;;;;;22.27;11.10;;;;;;;;;;5008638;28;20435;-54
2023/01/27 07:00:19;;;;;;;21.90;11.40;;;;;;;;;;5007223;28;20445;-55
2023/01/27 07:02:45;;;;;;;18.53;12.93;;;;;;;;;;5015598;28;20524;-53
2023/01/27 07:05:12;;;;;;;17.87;9.80;;;;;;;;;;5014052;28;20508;-55
2023/01/27 07:07:38;;;;;;;21.27;11.43;;;;;;;;;;4967425;28;20442;-53
2023/01/27 07:10:04;;;;;;;17.40;11.70;;;;;;;;;;5009903;28;20439;-53
2023/01/27 07:12:31;;;;;;;15.93;10.20;;;;;;;;;;4996068;28;20447;-53
2023/01/27 07:14:56;;;;;;;16.43;9.97;;;;;;;;;;5021857;28;20969;-53
2023/01/27 07:17:22;;;;;;;16.33;10.70;;;;;;;;;;5014402;28;20423;-53
2023/01/27 07:19:48;;;;;;;22.77;12.57;;;;;;;;;;5014302;28;20447;-55
2023/01/27 07:22:14;;;;;;;16.97;11.27;;;;;;;;;;4986135;28;20474;-54
2023/01/27 07:24:40;;;;;;;16.13;11.23;;;;;;;;;;5013912;28;20487;-53
2023/01/27 07:27:06;;;;;;;13.30;8.80;;;;;;;;;;5004139;28;26257;-52
2023/01/27 07:29:32;;;;;;;16.00;11.07;;;;;;;;;;5014278;28;20438;-53
2023/01/27 07:31:58;;;;;;;17.40;11.50;;;;;;;;;;4995798;28;20439;-52
2023/01/27 07:34:24;;;;;;;17.20;10.50;;;;;;;;;;5019914;28;20223;-52
2023/01/27 07:36:52;;;;;;;18.60;10.43;;;;;;;;;;4994807;28;20451;-53
2023/01/27 07:39:18;;;;;;;14.60;10.40;;;;;;;;;;5024792;28;20455;-54
2023/01/27 07:41:47;;;;;;;17.60;10.07;;;;;;;;;;4997231;28;20548;-54
2023/01/27 07:44:14;;;;;;;17.13;8.67;;;;;;;;;;5018715;28;20439;-53
2023/01/27 07:46:39;;;;;;;16.97;10.97;;;;;;;;;;5016929;28;20522;-53
2023/01/27 07:49:05;;;;;;;15.17;10.33;;;;;;;;;;4990668;28;20519;-55
2023/01/27 07:51:31;;;;;;;17.20;10.23;;;;;;;;;;5012472;28;20439;-54
2023/01/27 07:53:57;;;;;;;16.83;9.50;;;;;;;;;;4981415;28;20617;-53
2023/01/27 07:56:23;;;;;;;17.37;9.90;;;;;;;;;;5015688;28;20438;-52
2023/01/27 07:58:49;;;;;;;15.87;9.87;;;;;;;;;;5028698;28;20443;-54
2023/01/27 08:01:15;;;;;;;15.40;8.50;;;;;;;;;;5018459;28;20443;-53
2023/01/27 08:03:41;;;;;;;16.67;9.77;;;;;;;;;;4987762;28;20634;-53
2023/01/27 08:06:10;;;;;;;15.10;9.30;;;;;;;;;;5026681;28;20542;-52
2023/01/27 08:08:36;;;;;;;14.30;8.40;;;;;;;;;;4979880;28;20444;-55
2023/01/27 08:11:03;;;;;;;10.63;7.40;;;;;;;;;;5017886;28;20992;-53
2023/01/27 08:13:29;;;;;;;12.90;8.40;;;;;;;;;;4986463;28;20459;-56
2023/01/27 08:15:58;;;;;;;13.40;9.47;;;;;;;;;;5014657;28;21003;-52
2023/01/27 08:18:25;;;;;;;15.80;7.77;;;;;;;;;;5009433;28;20439;-53
2023/01/27 08:20:53;;;;;;;19.67;10.17;;;;;;;;;;5011610;28;20442;-53
2023/01/27 08:23:19;;;;;;;17.20;9.50;;;;;;;;;;5016449;28;20502;-54
2023/01/27 08:25:49;;;;;;;11.90;8.80;;;;;;;;;;5012277;28;20600;-54
2023/01/27 08:28:15;;;;;;;11.03;7.37;;;;;;;;;;4993100;28;20911;-55
2023/01/27 08:30:41;;;;;;;10.57;7.00;;;;;;;;;;4974617;28;20436;-52
2023/01/27 08:33:07;;;;;;;10.27;6.60;;;;;;;;;;5017135;28;20756;-53
2023/01/27 08:35:34;;;;;;;9.33;6.33;;;;;;;;;;4988914;28;20451;-53
2023/01/27 08:38:00;;;;;;;12.20;8.20;;;;;;;;;;5017291;28;20438;-54
2023/01/27 08:40:26;;;;;;;11.83;7.33;;;;;;;;;;4972327;28;20443;-53
2023/01/27 08:42:52;;;;;;;12.13;8.30;;;;;;;;;;5018428;28;20526;-54
2023/01/27 08:45:18;;;;;;;16.17;9.40;;;;;;;;;;5007154;28;20439;-52
2023/01/27 08:47:44;;;;;;;15.83;9.47;;;;;;;;;;5016208;28;20943;-52
2023/01/27 08:50:10;;;;;;;15.40;8.07;;;;;;;;;;5012076;28;20527;-52
2023/01/27 08:52:36;;;;;;;17.30;8.63;;;;;;;;;;5010751;28;20923;-52
2023/01/27 08:55:02;;;;;;;17.93;9.13;;;;;;;;;;4999396;28;20471;-52
2023/01/27 08:57:31;;;;;;;9.63;7.30;;;;;;;;;;5010916;28;21022;-54
2023/01/27 08:59:57;;;;;;;12.50;8.27;;;;;;;;;;5002337;28;20962;-56
2023/01/27 09:02:23;;;;;;;15.90;8.83;;;;;;;;;;4976050;28;20450;-56
2023/01/27 09:04:50;;;;;;;11.40;6.47;;;;;;;;;;5009132;28;20896;-55
2023/01/27 09:07:16;;;;;;;12.23;7.23;;;;;;;;;;4970559;28;20447;-54
2023/01/27 09:09:45;;;;;;;15.27;7.40;;;;;;;;;;5009518;28;20713;-55
2023/01/27 09:12:11;;;;;;;11.77;6.43;;;;;;;;;;4959491;28;20443;-54
2023/01/27 09:14:37;;;;;;;13.70;6.70;;;;;;;;;;4984371;28;20496;-52
2023/01/27 09:17:03;;;;;;;16.97;8.40;;;;;;;;;;5009449;28;20439;-54
2023/01/27 09:19:29;;;;;;;11.63;7.50;;;;;;;;;;5005328;28;20459;-54
2023/01/27 09:21:55;;;;;;;11.17;6.10;;;;;;;;;;5013578;28;20443;-52
2023/01/27 09:24:21;;;;;;;13.77;7.00;;;;;;;;;;4989221;28;20442;-55
2023/01/27 09:26:47;;;;;;;19.20;8.97;;;;;;;;;;5015509;28;20438;-54
2023/01/27 09:29:13;;;;;;;12.90;5.60;;;;;;;;;;4992244;28;20461;-53
2023/01/27 09:31:39;;;;;;;10.03;6.97;;;;;;;;;;5015510;28;20423;-53
2023/01/27 09:34:05;;;;;;;12.67;7.10;;;;;;;;;;4982053;28;20506;-54
2023/01/27 09:36:31;;;;;;;12.43;7.47;;;;;;;;;;5013803;28;20436;-54
2023/01/27 09:38:58;;;;;;;12.63;7.27;;;;;;;;;;4990361;28;20473;-52
2023/01/27 09:41:43;;;;;;;15.27;7.00;;;;;;;;;;5011483;28;20436;-52
2023/01/27 09:44:24;;;;;;;10.23;7.00;;;;;;;;;;4973063;28;20560;-52
2023/01/27 09:46:59;;;;;;;12.63;8.97;;;;;;;;;;5015989;28;20446;-52
2023/01/27 09:49:43;;;;;;;10.87;7.47;;;;;;;;;;5012131;28;20449;-54
2023/01/27 09:52:28;;;;;;;11.90;7.47;;;;;;;;;;5014495;28;20450;-53
2023/01/27 09:55:05;;;;;;;11.90;6.20;;;;;;;;;;5006143;28;20806;-52
2023/01/27 09:57:43;;;;;;;15.90;10.10;;;;;;;;;;5017682;28;20430;-53
2023/01/27 10:00:09;;;;;;;13.73;6.53;;;;;;;;;;5008870;28;21391;-54
2023/01/27 10:02:35;;;;;;;19.90;10.47;;;;;;;;;;5001306;28;20542;-53
2023/01/27 10:05:04;;;;;;;11.80;8.43;;;;;;;;;;4991575;28;23570;-54
2023/01/27 10:07:34;;;;;;;16.13;8.13;;;;;;;;;;4993949;28;20791;-55
2023/01/27 10:10:09;;;;;;;17.30;7.83;;;;;;;;;;5004166;28;21503;-52
2023/01/27 10:12:53;;;;;;;18.60;9.37;;;;;;;;;;5002291;28;20919;-56
2023/01/27 10:15:31;;;;;;;22.17;9.47;;;;;;;;;;5007854;28;20517;-54
2023/01/27 10:18:14;;;;;;;24.03;9.80;;;;;;;;;;4967802;28;20950;-52
2023/01/27 10:21:00;;;;;;;22.97;9.30;;;;;;;;;;5011369;28;20522;-52
2023/01/27 10:23:44;;;;;;;26.43;9.70;;;;;;;;;;4982048;28;20499;-52
2023/01/27 10:26:17;;;;;;;11.70;5.63;;;;;;;;;;5005129;28;20442;-54
2023/01/27 10:28:46;;;;;;;14.33;7.10;;;;;;;;;;4984286;28;20438;-52
2023/01/27 10:31:17;;;;;;;10.70;5.60;;;;;;;;;;5011951;28;20443;-52
2023/01/27 10:33:52;;;;;;;14.77;8.03;;;;;;;;;;5005254;28;20529;-54
2023/01/27 10:36:24;;;;;;;17.60;9.20;;;;;;;;;;5012946;28;20529;-54
2023/01/27 10:38:54;;;;;;;16.87;7.60;;;;;;;;;;4973921;28;22490;-54
2023/01/27 10:41:19;;;;;;;14.97;8.20;;;;;;;;;;5016287;28;21060;-53
2023/01/27 10:44:04;;;;;;;10.27;6.90;;;;;;;;;;4986595;28;20447;-51
2023/01/27 10:46:53;;;;;;;15.97;8.07;;;;;;;;;;5013371;28;20944;-53
2023/01/27 10:49:23;;;;;;;12.20;6.43;;;;;;;;;;4979584;28;20537;-53
2023/01/27 10:52:00;;;;;;;14.57;6.20;;;;;;;;;;5017377;28;20442;-53
2023/01/27 10:54:27;;;;;;;8.90;6.10;;;;;;;;;;4986612;28;20502;-53
2023/01/27 10:56:58;;;;;;;13.17;8.40;;;;;;;;;;5012825;28;20470;-53
2023/01/27 10:59:36;;;;;;;11.10;7.53;;;;;;;;;;5002481;28;20443;-53
2023/01/27 11:02:08;;;;;;;13.33;6.97;;;;;;;;;;5000223;28;21005;-54
2023/01/27 11:04:37;;;;;;;12.20;7.67;;;;;;;;;;4977591;28;20449;-54
2023/01/27 11:07:03;;;;;;;11.93;7.07;;;;;;;;;;4998197;28;21025;-52
2023/01/27 11:09:34;;;;;;;11.93;8.87;;;;;;;;;;4965131;28;21498;-53
2023/01/27 11:12:01;;;;;;;12.13;7.57;;;;;;;;;;5010029;28;20471;-53
2023/01/27 11:14:32;;;;;;;7.73;5.43;;;;;;;;;;4988984;28;20487;-55
2023/01/27 11:17:03;;;;;;;11.77;7.00;;;;;;;;;;5015027;28;20450;-56
2023/01/27 11:19:32;;;;;;;11.67;5.97;;;;;;;;;;4955011;28;20557;-54
2023/01/27 11:21:58;;;;;;;12.03;6.93;;;;;;;;;;5002589;28;20609;-53
2023/01/27 11:24:45;;;;;;;11.03;5.50;;;;;;;;;;5009894;28;20478;-51
2023/01/27 11:27:18;;;;;;;7.60;4.73;;;;;;;;;;5016025;28;20422;-52
2023/01/27 11:29:48;;;;;;;15.00;6.60;;;;;;;;;;5011835;28;20434;-52
2023/01/27 11:32:32;;;;;;;11.67;6.63;;;;;;;;;;5013814;28;22318;-53
2023/01/27 11:35:02;;;;;;;11.87;7.13;;;;;;;;;;4992515;28;20486;-52
2023/01/27 11:37:30;;;;;;;13.53;6.67;;;;;;;;;;5007691;28;21010;-52
2023/01/27 11:39:56;;;;;;;12.97;5.77;;;;;;;;;;4986578;28;20943;-54
2023/01/27 11:42:23;;;;;;;11.60;6.50;;;;;;;;;;5009131;28;20430;-53
2023/01/27 11:44:49;;;;;;;15.17;7.80;;;;;;;;;;4988515;28;21374;-53
2023/01/27 11:47:19;;;;;;;14.80;7.37;;;;;;;;;;5010949;28;21351;-52
2023/01/27 11:49:46;;;;;;;9.90;5.37;;;;;;;;;;4967468;28;21750;-54
2023/01/27 11:52:13;;;;;;;10.73;6.33;;;;;;;;;;5005528;28;20439;-54
2023/01/27 11:54:43;;;;;;;13.13;6.60;;;;;;;;;;4980282;28;21903;-55
2023/01/27 11:57:22;;;;;;;13.37;5.80;;;;;;;;;;4996835;28;20467;-54
2023/01/27 11:59:53;;;;;;;12.57;6.93;;;;;;;;;;4990123;28;20541;-53
2023/01/27 12:02:22;;;;;;;9.37;6.30;;;;;;;;;;4999384;28;20466;-60
2023/01/27 12:04:52;;;;;;;12.30;5.50;;;;;;;;;;4995619;28;20476;-52
2023/01/27 12:07:39;;;;;;;20.73;8.77;;;;;;;;;;5021360;28;20443;-54
2023/01/27 12:10:20;;;;;;;9.40;6.27;;;;;;;;;;4989298;28;20913;-54
2023/01/27 12:12:46;;;;;;;9.20;5.63;;;;;;;;;;5010666;28;20447;-54
2023/01/27 12:15:14;;;;;;;7.97;4.70;;;;;;;;;;4990480;28;20938;-53
2023/01/27 12:17:41;;;;;;;10.80;6.83;;;;;;;;;;5024116;28;20431;-54
2023/01/27 12:20:25;;;;;;;9.90;5.90;;;;;;;;;;5016179;28;20436;-55
2023/01/27 12:22:55;;;;;;;13.20;7.30;;;;;;;;;;5020100;28;20526;-54
2023/01/27 12:25:23;;;;;;;16.90;7.73;;;;;;;;;;4967884;28;20555;-54
2023/01/27 12:27:58;;;;;;;10.83;5.87;;;;;;;;;;5009299;28;20451;-54
2023/01/27 12:30:26;;;;;;;11.87;7.33;;;;;;;;;;5015553;28;20466;-55
2023/01/27 12:32:52;;;;;;;10.87;6.90;;;;;;;;;;5017070;28;20611;-54
2023/01/27 12:35:19;;;;;;;14.60;7.23;;;;;;;;;;5019219;28;21030;-55
2023/01/27 12:37:45;;;;;;;11.50;7.20;;;;;;;;;;5013378;28;20432;-53
2023/01/27 12:40:18;;;;;;;12.40;7.00;;;;;;;;;;4985268;28;20591;-53
2023/01/27 12:43:02;;;;;;;14.80;7.57;;;;;;;;;;5015018;28;20493;-52
2023/01/27 12:45:36;;;;;;;10.93;6.00;;;;;;;;;;4990710;28;20447;-53
2023/01/27 12:48:02;;;;;;;17.40;8.83;;;;;;;;;;5016147;28;21033;-53
2023/01/27 12:50:35;;;;;;;15.03;7.40;;;;;;;;;;4962171;28;20466;-55
2023/01/27 12:53:05;;;;;;;13.97;6.73;;;;;;;;;;4982055;28;20442;-53
2023/01/27 12:55:31;;;;;;;11.53;7.23;;;;;;;;;;4935025;28;20460;-53
2023/01/27 12:57:57;;;;;;;17.50;7.90;;;;;;;;;;5010538;28;20434;-53
2023/01/27 13:00:24;;;;;;;19.43;10.57;;;;;;;;;;4980619;28;20454;-53
2023/01/27 13:02:50;;;;;;;15.63;7.30;;;;;;;;;;4978804;28;21085;-54
2023/01/27 13:05:17;;;;;;;14.67;7.70;;;;;;;;;;5004922;28;20447;-53
2023/01/27 13:07:47;;;;;;;11.10;8.07;;;;;;;;;;4981381;28;20439;-55
2023/01/27 13:10:16;;;;;;;13.47;9.37;;;;;;;;;;5012393;28;20633;-54
2023/01/27 13:12:52;;;;;;;16.33;8.60;;;;;;;;;;4980970;28;20991;-52
2023/01/27 13:15:19;;;;;;;18.83;9.20;;;;;;;;;;5011790;28;21109;-52
2023/01/27 13:17:48;;;;;;;14.10;8.57;;;;;;;;;;5013107;28;20431;-52
2023/01/27 13:20:31;;;;;;;12.80;8.13;;;;;;;;;;5021101;28;20511;-55
2023/01/27 13:23:11;;;;;;;19.93;10.37;;;;;;;;;;4995195;28;20978;-53
2023/01/27 13:25:44;;;;;;;17.80;10.90;;;;;;;;;;5012252;28;20451;-56
2023/01/27 13:28:11;;;;;;;13.90;7.67;;;;;;;;;;4964293;28;20838;-51
2023/01/27 13:30:39;;;;;;;16.37;8.07;;;;;;;;;;4996360;28;20448;-54
2023/01/27 13:33:17;;;;;;;11.73;8.53;;;;;;;;;;4979409;28;20459;-52
2023/01/27 13:35:46;;;;;;;13.80;7.60;;;;;;;;;;4998657;28;20483;-53
2023/01/27 13:38:30;;;;;;;17.30;10.23;;;;;;;;;;4993041;28;20458;-53
2023/01/27 13:40:56;;;;;;;17.53;10.70;;;;;;;;;;4998890;28;20533;-53
2023/01/27 13:43:28;;;;;;;14.97;10.10;;;;;;;;;;4996093;28;20463;-52
2023/01/27 13:45:58;;;;;;;15.00;9.77;;;;;;;;;;4993310;28;20520;-53
2023/01/27 13:48:26;;;;;;;14.20;8.97;;;;;;;;;;4992742;28;20553;-53
2023/01/27 13:50:55;;;;;;;20.03;11.27;;;;;;;;;;4999316;28;20436;-58
2023/01/27 13:53:21;;;;;;;14.80;10.10;;;;;;;;;;4997302;28;20952;-55
2023/01/27 13:56:07;;;;;;;14.93;10.20;;;;;;;;;;5003044;28;20454;-53
2023/01/27 13:58:48;;;;;;;16.30;9.73;;;;;;;;;;5000182;28;20823;-52
2023/01/27 14:01:25;;;;;;;12.37;9.43;;;;;;;;;;4969943;28;20510;-54
2023/01/27 14:03:57;;;;;;;15.67;8.80;;;;;;;;;;5004255;28;20447;-54
2023/01/27 14:06:35;;;;;;;16.43;10.10;;;;;;;;;;4988097;28;20444;-54
2023/01/27 14:09:01;;;;;;;15.00;9.47;;;;;;;;;;4959549;28;20450;-52
2023/01/27 14:11:46;;;;;;;11.03;8.53;;;;;;;;;;5010078;28;20440;-52
2023/01/27 14:14:12;;;;;;;14.03;8.73;;;;;;;;;;5000997;28;20463;-52
2023/01/27 14:16:38;;;;;;;18.30;11.77;;;;;;;;;;5012743;28;20447;-52
2023/01/27 14:19:04;;;;;;;19.40;10.20;;;;;;;;;;4985516;28;20567;-51
2023/01/27 14:21:30;;;;;;;19.10;9.33;;;;;;;;;;5009306;28;20450;-55
2023/01/27 14:24:04;;;;;;;18.23;8.73;;;;;;;;;;4993664;28;21174;-53
2023/01/27 14:26:30;;;;;;;18.00;10.77;;;;;;;;;;5011825;28;20462;-52
2023/01/27 14:29:09;;;;;;;14.83;9.27;;;;;;;;;;4968026;28;20488;-54
2023/01/27 14:31:39;;;;;;;13.47;8.10;;;;;;;;;;5011606;28;20435;-54
2023/01/27 14:34:09;;;;;;;10.60;7.27;;;;;;;;;;4988055;28;20497;-51
2023/01/27 14:36:38;;;;;;;16.80;9.90;;;;;;;;;;5003195;28;20459;-54
2023/01/27 14:39:16;;;;;;;19.30;8.23;;;;;;;;;;4986824;28;20567;-53
2023/01/27 14:41:42;;;;;;;13.07;6.33;;;;;;;;;;5016299;28;20450;-53
2023/01/27 14:44:12;;;;;;;8.20;6.53;;;;;;;;;;5006950;28;20419;-54
2023/01/27 14:46:46;;;;;;;11.60;7.10;;;;;;;;;;5004960;28;20188;-55
2023/01/27 14:49:31;;;;;;;13.23;8.53;;;;;;;;;;5000982;28;20431;-54
2023/01/27 14:51:59;;;;;;;13.20;8.23;;;;;;;;;;4998995;28;20443;-53
2023/01/27 14:54:28;;;;;;;11.80;7.43;;;;;;;;;;5004088;28;20678;-53
2023/01/27 14:57:03;;;;;;;15.30;9.77;;;;;;;;;;5005807;28;20424;-55
2023/01/27 14:59:29;;;;;;;15.33;8.50;;;;;;;;;;5004483;28;20433;-53
2023/01/27 15:02:14;;;;;;;12.50;7.17;;;;;;;;;;4992336;28;20872;-56
2023/01/27 15:05:00;;;;;;;17.23;9.90;;;;;;;;;;5007795;28;20693;-53
2023/01/27 15:07:26;;;;;;;10.90;8.80;;;;;;;;;;4989740;28;20458;-61
2023/01/27 15:09:54;;;;;;;15.10;9.83;;;;;;;;;;5016273;28;20423;-55